Time;durP1;ratioP1;P1;durP2;ratioP2;P2;SDS_P1;SDS_P2;PMS_P1;PMS_P2;Temp;Humidity;BMP_temperature;BMP_pressure;BME280_temperature;BME280_humidity;BME280_pressure;Samples;Min_cycle;Max_cycle;Signal;HPM_P1;HPM_P2
2021/06/26 14:08:33;;;;;;;5.63;5.00;;;22.70;99.90;;;;;;5103464;27;20967;-78
2021/06/26 14:10:58;;;;;;;4.93;4.53;;;28.20;79.20;;;;;;5092931;28;20447;-79
2021/06/26 14:13:24;;;;;;;5.00;4.60;;;31.30;53.20;;;;;;5096843;28;20184;-77
2021/06/26 14:15:49;;;;;;;4.73;4.43;;;33.00;44.60;;;;;;5095931;28;20586;-80
2021/06/26 14:18:15;;;;;;;5.10;4.60;;;33.40;40.70;;;;;;5091548;28;20191;-80
2021/06/26 14:20:41;;;;;;;4.60;4.30;;;33.20;40.00;;;;;;5090475;28;20268;-79
2021/06/26 14:23:07;;;;;;;5.00;4.70;;;32.80;41.90;;;;;;5086774;28;20193;-80
2021/06/26 14:25:33;;;;;;;5.37;4.90;;;32.40;42.20;;;;;;5095614;28;21022;-76
2021/06/26 14:27:58;;;;;;;6.00;5.50;;;31.90;42.90;;;;;;5092917;28;20295;-76
2021/06/26 14:30:24;;;;;;;6.07;5.67;;;31.50;42.90;;;;;;5088599;28;20605;-76
2021/06/26 14:32:51;;;;;;;5.70;5.30;;;30.90;42.70;;;;;;5086914;28;20180;-77
2021/06/26 14:35:17;;;;;;;6.47;5.87;;;30.20;43.30;;;;;;5080356;28;20430;-77
2021/06/26 14:37:43;;;;;;;5.80;5.40;;;29.90;44.60;;;;;;5091650;28;20496;-76
2021/06/26 14:40:11;;;;;;;5.60;5.20;;;29.70;45.90;;;;;;5093772;28;20933;-77
2021/06/26 14:42:38;;;;;;;5.93;5.53;;;29.50;45.50;;;;;;5093749;28;20459;-77
2021/06/26 14:45:05;;;;;;;5.93;5.53;;;29.40;46.20;;;;;;5094223;28;20445;-77
2021/06/26 14:47:30;;;;;;;6.03;5.63;;;29.30;48.00;;;;;;5093125;28;20470;-77
2021/06/26 14:49:56;;;;;;;5.67;5.27;;;29.20;47.20;;;;;;5093902;28;20523;-77
2021/06/26 14:52:21;;;;;;;5.77;5.37;;;29.10;47.10;;;;;;5095914;28;20719;-77
2021/06/26 14:54:47;;;;;;;6.27;5.70;;;29.10;47.80;;;;;;5089484;28;20672;-77
2021/06/26 14:57:13;;;;;;;6.57;6.10;;;29.20;48.40;;;;;;5090810;28;20194;-77
2021/06/26 14:59:39;;;;;;;6.57;6.00;;;29.10;47.10;;;;;;5081159;28;20445;-78
2021/06/26 15:02:04;;;;;;;7.07;6.57;;;29.30;47.60;;;;;;5091547;28;20423;-77
2021/06/26 15:04:30;;;;;;;6.63;6.13;;;29.80;47.00;;;;;;5095617;28;20189;-77
2021/06/26 15:06:55;;;;;;;8.50;7.90;;;29.90;46.00;;;;;;5096067;28;20228;-78
2021/06/26 15:09:22;;;;;;;6.30;5.87;;;30.00;47.30;;;;;;5098648;28;20195;-80
2021/06/26 15:11:48;;;;;;;5.40;5.00;;;30.10;45.80;;;;;;5099400;28;20181;-79
2021/06/26 15:14:14;;;;;;;6.53;5.97;;;30.40;46.80;;;;;;5091469;28;20767;-78
2021/06/26 15:16:39;;;;;;;6.50;6.00;;;30.70;45.20;;;;;;5088033;28;20185;-78
2021/06/26 15:19:05;;;;;;;5.80;5.30;;;30.80;44.70;;;;;;5077291;28;20187;-78
2021/06/26 15:21:30;;;;;;;6.70;6.20;;;30.90;45.20;;;;;;5073397;28;20193;-77
2021/06/26 15:23:56;;;;;;;6.33;5.93;;;30.70;43.60;;;;;;5086014;28;20214;-78
2021/06/26 15:26:21;;;;;;;6.83;6.10;;;30.60;45.40;;;;;;5080147;28;20213;-78
2021/06/26 15:28:47;;;;;;;6.27;5.67;;;30.60;45.50;;;;;;5063830;28;20264;-77
2021/06/26 15:31:13;;;;;;;6.63;6.13;;;30.50;44.00;;;;;;5069812;28;20227;-77
2021/06/26 15:33:39;;;;;;;6.07;5.60;;;30.30;45.00;;;;;;5081572;28;20956;-77
2021/06/26 15:36:05;;;;;;;6.33;5.93;;;30.20;45.10;;;;;;5079797;28;20176;-78
2021/06/26 15:38:30;;;;;;;6.80;6.17;;;29.90;45.20;;;;;;5083722;28;20185;-78
2021/06/26 15:40:58;;;;;;;6.13;5.53;;;29.80;46.30;;;;;;5072148;28;20698;-78
2021/06/26 15:43:24;;;;;;;6.33;5.87;;;30.10;46.10;;;;;;5074047;28;20284;-78
2021/06/26 15:45:51;;;;;;;5.93;5.53;;;30.00;45.70;;;;;;5077768;28;20949;-78
2021/06/26 15:48:17;;;;;;;6.30;5.90;;;30.00;45.90;;;;;;5066864;28;20511;-78
2021/06/26 15:50:43;;;;;;;6.57;6.07;;;30.00;46.60;;;;;;5055751;28;20465;-78
2021/06/26 15:53:09;;;;;;;6.53;5.70;;;29.90;46.20;;;;;;5070433;28;20203;-77
2021/06/26 15:55:40;;;;;;;6.17;5.70;;;29.70;45.30;;;;;;5079016;28;20929;-78
2021/06/26 15:58:05;;;;;;;6.83;6.33;;;29.80;46.50;;;;;;5073525;28;20188;-78
2021/06/26 16:00:31;;;;;;;6.20;5.70;;;29.90;46.70;;;;;;5053706;28;20911;-77
2021/06/26 16:02:56;;;;;;;6.33;5.87;;;29.90;45.10;;;;;;5077347;28;20196;-78
2021/06/26 16:05:25;;;;;;;6.10;5.60;;;29.90;45.70;;;;;;5074883;28;20271;-78
2021/06/26 16:07:52;;;;;;;6.40;6.00;;;29.70;45.50;;;;;;5076296;28;20236;-78
2021/06/26 16:10:18;;;;;;;6.10;5.70;;;29.60;44.60;;;;;;5076504;28;20474;-78
2021/06/26 16:12:44;;;;;;;6.37;5.87;;;29.50;45.80;;;;;;5069278;28;20466;-77
2021/06/26 16:15:10;;;;;;;6.67;6.17;;;29.20;45.10;;;;;;5075751;28;20839;-78
2021/06/26 16:17:36;;;;;;;7.40;6.80;;;28.90;45.70;;;;;;5078367;28;20187;-78
2021/06/26 16:20:04;;;;;;;6.23;5.83;;;28.60;47.60;;;;;;5074447;28;20784;-77
2021/06/26 16:22:29;;;;;;;5.40;5.10;;;28.20;47.80;;;;;;5070587;28;20988;-78
2021/06/26 16:24:55;;;;;;;6.43;6.00;;;28.00;48.90;;;;;;5052213;28;20441;-77
2021/06/26 16:27:20;;;;;;;5.70;5.20;;;27.80;49.60;;;;;;5062352;28;20265;-78
2021/06/26 16:29:46;;;;;;;6.73;6.13;;;27.60;49.30;;;;;;5077819;28;20185;-78
2021/06/26 16:32:12;;;;;;;6.80;6.30;;;27.50;49.50;;;;;;5072757;28;20193;-78
2021/06/26 16:34:38;;;;;;;6.20;5.70;;;27.30;49.50;;;;;;5055262;28;20215;-78
2021/06/26 16:37:07;;;;;;;5.97;5.47;;;27.10;50.10;;;;;;5069404;28;20209;-77
2021/06/26 16:39:34;;;;;;;6.70;6.20;;;27.00;50.00;;;;;;5065061;28;20481;-77
2021/06/26 16:42:00;;;;;;;6.13;5.73;;;26.90;50.90;;;;;;5072852;28;20490;-77
2021/06/26 16:44:27;;;;;;;6.97;6.47;;;26.80;51.40;;;;;;5068564;28;21035;-77
2021/06/26 16:46:53;;;;;;;6.97;6.37;;;26.70;50.50;;;;;;5059720;28;20998;-77
2021/06/26 16:49:18;;;;;;;7.33;6.73;;;26.60;50.60;;;;;;5075568;28;20471;-77
2021/06/26 16:51:44;;;;;;;6.60;6.10;;;26.60;51.50;;;;;;5077030;28;20933;-77
2021/06/26 16:54:10;;;;;;;6.97;6.47;;;26.60;51.10;;;;;;5064455;28;20182;-77
2021/06/26 16:56:37;;;;;;;6.67;6.17;;;26.60;52.00;;;;;;5046751;28;20579;-78
2021/06/26 16:59:02;;;;;;;5.87;5.47;;;26.70;52.00;;;;;;5067811;28;20605;-77
2021/06/26 17:01:28;;;;;;;6.67;6.17;;;26.70;51.20;;;;;;5070537;28;20440;-77
2021/06/26 17:03:53;;;;;;;6.40;6.00;;;26.70;52.00;;;;;;5074729;28;20532;-77
2021/06/26 17:06:19;;;;;;;6.00;5.60;;;26.90;52.10;;;;;;5062054;28;20193;-78
2021/06/26 17:08:47;;;;;;;6.70;6.10;;;27.00;52.00;;;;;;5070028;28;20255;-78
2021/06/26 17:11:12;;;;;;;6.20;5.80;;;27.10;51.50;;;;;;5068858;28;20304;-78
2021/06/26 17:13:38;;;;;;;5.90;5.50;;;27.00;50.40;;;;;;5068560;28;20938;-78
2021/06/26 17:16:04;;;;;;;6.70;6.20;;;27.00;50.90;;;;;;5070460;28;20181;-78
2021/06/26 17:18:30;;;;;;;6.70;6.20;;;27.00;51.00;;;;;;5072438;28;20891;-77
2021/06/26 17:20:56;;;;;;;6.70;6.10;;;26.80;50.60;;;;;;5071276;28;20499;-77
2021/06/26 17:23:22;;;;;;;6.47;5.97;;;26.60;51.20;;;;;;5071964;28;20189;-78
2021/06/26 17:25:48;;;;;;;6.20;5.80;;;26.40;51.90;;;;;;5072156;28;20936;-78
2021/06/26 17:28:15;;;;;;;6.87;6.37;;;26.20;52.50;;;;;;5067434;28;20612;-78
2021/06/26 17:30:42;;;;;;;7.53;6.93;;;25.90;52.60;;;;;;5071294;28;20801;-76
2021/06/26 17:33:07;;;;;;;6.90;6.40;;;25.60;53.10;;;;;;5065478;28;20706;-77
2021/06/26 17:35:33;;;;;;;6.97;6.37;;;25.40;53.90;;;;;;5074008;28;20429;-77
2021/06/26 17:37:59;;;;;;;7.30;6.70;;;25.10;54.60;;;;;;5070751;28;20209;-78
2021/06/26 17:40:24;;;;;;;7.80;7.03;;;24.90;55.60;;;;;;5062193;28;20193;-79
2021/06/26 17:42:50;;;;;;;7.60;7.00;;;24.70;56.10;;;;;;5073142;28;20653;-79
2021/06/26 17:45:17;;;;;;;8.07;7.47;;;24.50;56.70;;;;;;5067285;28;20190;-78
2021/06/26 17:47:44;;;;;;;7.53;6.97;;;24.40;57.30;;;;;;5063857;28;20927;-78
2021/06/26 17:50:11;;;;;;;7.33;6.60;;;23.90;57.80;;;;;;5075278;28;21078;-78
2021/06/26 17:52:37;;;;;;;8.47;7.77;;;24.30;58.80;;;;;;5063581;28;20939;-79
2021/06/26 17:55:05;;;;;;;8.03;7.43;;;24.20;59.30;;;;;;5069592;28;20464;-78
2021/06/26 17:57:30;;;;;;;8.00;7.40;;;24.20;59.50;;;;;;5063054;28;21061;-78
2021/06/26 17:59:56;;;;;;;6.70;6.13;;;24.20;60.40;;;;;;5072820;28;20475;-78
2021/06/26 18:02:22;;;;;;;7.60;7.00;;;24.20;60.90;;;;;;5072280;28;20205;-80
2021/06/26 18:04:49;;;;;;;6.90;6.40;;;24.10;60.60;;;;;;5075306;28;20169;-81
2021/06/26 18:07:15;;;;;;;8.10;7.30;;;24.10;60.90;;;;;;5062602;28;20271;-80
2021/06/26 18:09:41;;;;;;;8.67;7.97;;;23.60;60.20;;;;;;5069929;28;20472;-81
2021/06/26 18:12:06;;;;;;;7.10;6.50;;;23.50;61.00;;;;;;5069644;28;20645;-83
2021/06/26 18:14:32;;;;;;;8.07;7.47;;;24.10;62.40;;;;;;5071214;28;20196;-79
2021/06/26 18:16:57;;;;;;;7.43;6.93;;;24.00;62.60;;;;;;5067051;28;20434;-80
2021/06/26 18:19:23;;;;;;;7.37;6.70;;;23.80;62.60;;;;;;5073664;28;20237;-80
2021/06/26 18:21:49;;;;;;;8.43;7.47;;;23.60;62.90;;;;;;5065801;28;20198;-80
2021/06/26 18:24:14;;;;;;;8.47;7.87;;;23.40;63.60;;;;;;5063929;28;20197;-79
2021/06/26 18:26:40;;;;;;;8.90;8.10;;;23.10;64.00;;;;;;5070585;28;20209;-80
2021/06/26 18:29:06;;;;;;;7.50;7.00;;;23.30;65.20;;;;;;5067832;28;20219;-82
2021/06/26 18:31:31;;;;;;;8.63;7.93;;;23.00;65.90;;;;;;5059378;28;20204;-82
2021/06/26 18:33:57;;;;;;;8.00;7.30;;;23.20;67.60;;;;;;5074936;28;20180;-83
2021/06/26 18:36:22;;;;;;;7.47;6.87;;;22.90;68.30;;;;;;5074018;28;20274;-81
2021/06/26 18:38:48;;;;;;;8.23;7.60;;;22.80;69.20;;;;;;5077394;28;20179;-81
2021/06/26 18:41:15;;;;;;;7.43;6.93;;;22.70;69.60;;;;;;5071876;28;20216;-82
2021/06/26 18:43:41;;;;;;;7.63;7.03;;;22.70;70.00;;;;;;5072553;28;20428;-81
2021/06/26 18:46:06;;;;;;;8.00;7.30;;;22.50;70.60;;;;;;5073374;28;20436;-82
2021/06/26 18:48:33;;;;;;;9.07;8.27;;;22.30;71.70;;;;;;5079444;28;20326;-82
2021/06/26 18:50:59;;;;;;;7.97;7.27;;;22.20;72.60;;;;;;5071798;28;20187;-81
2021/06/26 18:53:25;;;;;;;8.50;7.77;;;22.00;73.10;;;;;;5064683;28;20428;-81
2021/06/26 18:56:08;;;;;;;7.70;7.10;;;21.80;73.80;;;;;;5077759;28;20447;-80
2021/06/26 18:58:48;;;;;;;7.97;7.20;;;22.00;75.60;;;;;;5073503;28;20215;-81
2021/06/26 19:01:21;;;;;;;8.00;7.40;;;21.70;78.30;;;;;;5069605;28;20431;-81
2021/06/26 19:03:47;;;;;;;9.53;8.63;;;21.50;79.60;;;;;;5073733;28;20444;-82
2021/06/26 19:06:14;;;;;;;8.07;7.47;;;21.70;81.30;;;;;;5080877;28;20427;-81
2021/06/26 19:08:40;;;;;;;8.97;8.27;;;21.50;84.60;;;;;;5078363;28;21074;-81
2021/06/26 19:11:06;;;;;;;8.70;8.10;;;21.20;86.60;;;;;;5078581;28;20476;-82
2021/06/26 19:13:33;;;;;;;8.97;8.27;;;21.30;88.00;;;;;;5085557;28;20937;-83
2021/06/26 19:16:00;;;;;;;9.80;8.90;;;21.00;90.40;;;;;;5078517;28;20801;-81
2021/06/26 19:18:26;;;;;;;9.17;8.27;;;20.90;91.80;;;;;;5079189;28;20443;-83
2021/06/26 19:20:52;;;;;;;9.50;8.80;;;20.80;93.10;;;;;;5075226;28;20442;-81
2021/06/26 19:23:19;;;;;;;8.17;7.47;;;21.00;94.30;;;;;;5081924;28;20488;-82
2021/06/26 19:25:54;;;;;;;9.40;8.47;;;20.70;95.30;;;;;;5063886;28;20441;-82
2021/06/26 19:28:21;;;;;;;8.43;7.73;;;20.40;95.90;;;;;;5073743;28;21053;-83
2021/06/26 19:30:49;;;;;;;8.43;7.70;;;20.40;96.60;;;;;;5077419;28;20438;-82
2021/06/26 19:33:15;;;;;;;8.97;8.17;;;20.30;97.60;;;;;;5078402;28;20439;-82
2021/06/26 19:35:41;;;;;;;9.20;8.30;;;20.20;99.10;;;;;;5063489;28;20446;-81
2021/06/26 19:38:07;;;;;;;8.87;8.17;;;20.00;99.90;;;;;;5060792;28;20440;-82
2021/06/26 19:40:34;;;;;;;9.23;8.43;;;19.90;99.90;;;;;;5078956;28;20196;-82
2021/06/26 19:43:00;;;;;;;9.00;8.27;;;19.90;99.90;;;;;;5083999;28;20514;-83
2021/06/26 19:45:26;;;;;;;8.93;8.13;;;19.60;99.90;;;;;;5082847;28;20438;-83
2021/06/26 19:47:52;;;;;;;9.40;8.57;;;19.60;99.90;;;;;;5075936;28;20571;-82
2021/06/26 19:50:18;;;;;;;10.30;9.20;;;19.60;99.90;;;;;;5059490;28;20528;-82
2021/06/26 19:52:44;;;;;;;11.27;10.27;;;19.50;99.90;;;;;;5075484;28;20439;-82
2021/06/26 19:55:10;;;;;;;13.83;10.70;;;19.40;99.90;;;;;;5075962;28;20593;-82
2021/06/26 19:57:36;;;;;;;9.73;8.73;;;19.30;99.90;;;;;;5078428;28;20501;-82
2021/06/26 20:00:06;;;;;;;9.87;9.00;;;19.20;99.90;;;;;;5074271;28;20951;-82
2021/06/26 20:02:32;;;;;;;10.53;9.40;;;19.20;99.90;;;;;;5072672;28;20265;-83
2021/06/26 20:04:58;;;;;;;10.97;9.87;;;19.10;99.90;;;;;;5075773;28;20453;-82
2021/06/26 20:07:23;;;;;;;10.53;9.43;;;18.80;99.90;;;;;;5071521;28;20482;-83
2021/06/26 20:09:49;;;;;;;9.13;8.23;;;18.70;99.90;;;;;;5076941;28;20552;-83
2021/06/26 20:12:14;;;;;;;10.80;9.80;;;18.70;99.90;;;;;;5061167;28;20589;-82
2021/06/26 20:14:40;;;;;;;10.30;9.50;;;18.80;99.90;;;;;;5069537;28;20710;-83
2021/06/26 20:17:05;;;;;;;9.93;8.93;;;18.50;99.90;;;;;;5068805;28;20184;-82
2021/06/26 20:19:32;;;;;;;9.00;8.27;;;18.50;99.90;;;;;;5077493;28;20463;-82
2021/06/26 20:21:57;;;;;;;10.33;9.53;;;18.40;99.90;;;;;;5069533;28;20202;-81
2021/06/26 20:24:23;;;;;;;8.77;7.87;;;18.50;99.90;;;;;;5074553;28;20442;-82
2021/06/26 20:26:48;;;;;;;9.77;8.87;;;18.60;99.90;;;;;;5079821;28;20198;-82
2021/06/26 20:29:14;;;;;;;10.53;9.53;;;18.40;99.90;;;;;;5070383;28;20242;-82
2021/06/26 20:31:40;;;;;;;10.07;9.07;;;18.10;99.90;;;;;;5080713;28;20572;-83
2021/06/26 20:34:05;;;;;;;9.00;8.30;;;17.80;99.90;;;;;;5069711;28;20192;-83
2021/06/26 20:36:31;;;;;;;9.97;8.97;;;18.20;99.90;;;;;;5082565;28;20193;-82
2021/06/26 20:38:56;;;;;;;12.53;9.90;;;17.80;99.90;;;;;;5066991;28;20202;-81
2021/06/26 20:41:22;;;;;;;10.37;9.30;;;17.80;99.90;;;;;;5071446;28;20680;-82
2021/06/26 20:43:47;;;;;;;10.60;9.60;;;17.60;99.90;;;;;;5066621;28;20194;-82
2021/06/26 20:46:13;;;;;;;10.30;9.30;;;17.80;99.90;;;;;;5072907;28;20648;-83
2021/06/26 20:48:38;;;;;;;9.97;9.00;;;17.50;99.90;;;;;;5072930;28;20271;-83
2021/06/26 20:51:04;;;;;;;8.77;8.03;;;17.50;99.90;;;;;;5074508;28;20174;-83
2021/06/26 20:53:30;;;;;;;11.20;10.20;;;17.30;99.90;;;;;;5079885;28;20209;-83
2021/06/26 20:55:55;;;;;;;10.30;9.30;;;17.50;99.90;;;;;;5070128;28;20428;-83
2021/06/26 20:58:22;;;;;;;10.60;9.57;;;17.20;99.90;;;;;;5074269;28;20193;-83
2021/06/26 21:00:48;;;;;;;10.23;9.30;;;17.30;99.90;;;;;;5069563;28;20210;-84
2021/06/26 21:03:13;;;;;;;11.27;10.17;;;17.20;99.90;;;;;;5067335;28;20451;-83
2021/06/26 21:05:39;;;;;;;9.80;8.87;;;17.30;99.90;;;;;;5062134;28;20755;-83
2021/06/26 21:08:05;;;;;;;10.40;9.00;;;17.30;99.90;;;;;;5071305;28;20313;-83
2021/06/26 21:10:30;;;;;;;10.47;9.37;;;17.10;99.90;;;;;;5070453;28;20546;-83
2021/06/26 21:12:56;;;;;;;9.80;8.80;;;17.20;99.90;;;;;;5072125;28;20190;-84
2021/06/26 21:15:21;;;;;;;10.50;9.40;;;17.20;99.90;;;;;;5073531;28;20221;-84
2021/06/26 21:17:47;;;;;;;12.20;10.20;;;16.90;99.90;;;;;;5075270;28;20208;-84
2021/06/26 21:20:14;;;;;;;10.20;9.30;;;17.00;99.90;;;;;;5092145;28;20550;-85
2021/06/26 21:22:41;;;;;;;10.73;9.63;;;16.70;99.90;;;;;;5072702;28;20190;-84
2021/06/26 21:25:08;;;;;;;11.50;10.30;;;17.10;99.90;;;;;;5065120;28;20910;-84
2021/06/26 21:27:34;;;;;;;10.13;9.13;;;16.70;99.90;;;;;;5070840;28;20525;-84
2021/06/26 21:29:59;;;;;;;11.40;10.20;;;16.70;99.90;;;;;;5068021;28;20433;-84
2021/06/26 21:32:25;;;;;;;11.87;10.77;;;16.70;99.90;;;;;;5074421;28;20443;-84
2021/06/26 21:34:51;;;;;;;11.03;10.03;;;16.60;99.90;;;;;;5068766;28;20268;-84
2021/06/26 21:37:17;;;;;;;11.47;10.47;;;16.50;99.90;;;;;;5079201;28;20188;-83
2021/06/26 21:39:42;;;;;;;11.90;10.70;;;16.50;99.90;;;;;;5071410;28;20960;-83
2021/06/26 21:42:08;;;;;;;10.57;9.57;;;16.50;99.90;;;;;;5069139;28;20475;-83
2021/06/26 21:44:33;;;;;;;10.93;9.83;;;16.40;99.90;;;;;;5071812;28;20182;-83
2021/06/26 21:46:59;;;;;;;11.93;10.93;;;16.30;99.90;;;;;;5077633;28;20209;-83
2021/06/26 21:49:24;;;;;;;10.63;9.63;;;16.30;99.90;;;;;;5078940;28;20193;-83
2021/06/26 21:51:50;;;;;;;14.40;11.50;;;16.50;99.90;;;;;;5070819;28;20178;-82
2021/06/26 21:54:16;;;;;;;11.40;10.30;;;16.10;99.90;;;;;;5074233;28;20182;-82
2021/06/26 21:56:44;;;;;;;11.67;10.47;;;16.30;99.90;;;;;;5076924;28;20197;-82
2021/06/26 21:59:10;;;;;;;11.00;9.90;;;16.30;99.90;;;;;;5073505;28;20205;-82
2021/06/26 22:01:35;;;;;;;12.53;11.30;;;16.40;99.90;;;;;;5070491;28;20977;-82
2021/06/26 22:04:01;;;;;;;11.50;10.40;;;16.30;99.90;;;;;;5073484;28;20187;-82
2021/06/26 22:06:26;;;;;;;13.13;11.67;;;16.30;99.90;;;;;;5072326;28;20632;-83
2021/06/26 22:08:52;;;;;;;12.03;10.83;;;16.10;99.90;;;;;;5071310;28;20231;-83
2021/06/26 22:11:19;;;;;;;12.13;10.93;;;16.20;99.90;;;;;;5078936;28;20186;-83
2021/06/26 22:13:48;;;;;;;11.80;10.60;;;16.30;99.90;;;;;;5080620;28;20451;-83
2021/06/26 22:16:14;;;;;;;11.50;10.00;;;16.10;99.90;;;;;;5074713;28;20420;-83
2021/06/26 22:18:41;;;;;;;12.60;11.30;;;16.10;99.90;;;;;;5073337;28;22094;-83
2021/06/26 22:21:10;;;;;;;11.67;10.47;;;16.10;99.90;;;;;;5072359;28;20626;-83
2021/06/26 22:23:36;;;;;;;11.77;10.43;;;16.20;99.90;;;;;;5079493;28;20458;-83
2021/06/26 22:26:02;;;;;;;11.07;10.00;;;16.10;99.90;;;;;;5075645;28;20480;-83
2021/06/26 22:28:28;;;;;;;12.07;10.77;;;16.10;99.90;;;;;;5077862;28;20555;-84
2021/06/26 22:30:55;;;;;;;12.00;10.80;;;15.70;99.90;;;;;;5060114;28;20499;-83
2021/06/26 22:33:20;;;;;;;11.67;10.47;;;16.00;99.90;;;;;;5075816;28;20477;-83
2021/06/26 22:35:47;;;;;;;11.00;9.90;;;15.90;99.90;;;;;;5061860;28;20516;-83
2021/06/26 22:38:13;;;;;;;11.63;10.50;;;15.90;99.90;;;;;;5079628;28;20217;-83
2021/06/26 22:40:39;;;;;;;11.30;10.17;;;15.70;99.90;;;;;;5085473;28;20432;-83
2021/06/26 22:43:05;;;;;;;13.03;11.57;;;15.90;99.90;;;;;;5078431;28;20431;-83
2021/06/26 22:45:30;;;;;;;12.43;11.10;;;15.50;99.90;;;;;;5073962;28;20277;-83
2021/06/26 22:47:56;;;;;;;12.30;11.10;;;15.80;99.90;;;;;;5075914;28;20558;-83
2021/06/26 22:50:23;;;;;;;11.87;10.60;;;15.50;99.90;;;;;;5075866;28;20185;-83
2021/06/26 22:52:50;;;;;;;12.80;11.43;;;15.70;99.90;;;;;;5072777;28;20422;-83
2021/06/26 22:55:18;;;;;;;12.23;11.03;;;15.70;99.90;;;;;;5070993;28;20939;-83
2021/06/26 22:57:44;;;;;;;14.07;11.03;;;15.30;99.90;;;;;;5067794;28;20494;-83
2021/06/26 23:00:14;;;;;;;13.03;11.63;;;15.80;99.90;;;;;;5074708;28;20439;-83
2021/06/26 23:02:40;;;;;;;13.53;12.23;;;15.70;99.90;;;;;;5072998;28;20493;-83
2021/06/26 23:05:07;;;;;;;12.63;11.33;;;15.40;99.90;;;;;;5078996;28;20436;-83
2021/06/26 23:07:32;;;;;;;14.57;13.07;;;15.50;99.90;;;;;;5076593;28;20596;-83
2021/06/26 23:09:58;;;;;;;12.40;11.10;;;15.40;99.90;;;;;;5078646;28;20444;-83
2021/06/26 23:12:24;;;;;;;13.37;11.40;;;15.60;99.90;;;;;;5075210;28;20560;-83
2021/06/26 23:14:49;;;;;;;12.73;11.40;;;15.60;99.90;;;;;;5082746;28;20811;-83
2021/06/26 23:17:16;;;;;;;10.83;9.77;;;15.50;99.90;;;;;;5079920;28;20519;-83
2021/06/26 23:19:42;;;;;;;12.83;11.53;;;15.50;99.90;;;;;;5065078;28;20197;-83
2021/06/26 23:22:07;;;;;;;12.30;11.10;;;15.40;99.90;;;;;;5072731;28;20877;-83
2021/06/26 23:24:33;;;;;;;12.07;10.87;;;15.60;99.90;;;;;;5077007;28;20429;-83
2021/06/26 23:26:58;;;;;;;12.63;11.37;;;15.60;99.90;;;;;;5073748;28;20209;-83
2021/06/26 23:29:24;;;;;;;13.00;11.27;;;15.60;99.90;;;;;;5072210;28;20190;-83
2021/06/26 23:31:49;;;;;;;12.17;10.97;;;15.20;99.90;;;;;;5080865;28;20277;-83
2021/06/26 23:34:15;;;;;;;12.40;11.10;;;15.00;99.90;;;;;;5083462;28;20177;-83
2021/06/26 23:36:41;;;;;;;12.77;11.47;;;15.00;99.90;;;;;;5081115;28;20185;-82
2021/06/26 23:39:07;;;;;;;14.90;11.37;;;15.20;99.90;;;;;;5076633;28;20186;-83
2021/06/26 23:41:33;;;;;;;12.03;10.50;;;15.10;99.90;;;;;;5075943;28;20427;-82
2021/06/26 23:43:59;;;;;;;12.20;10.97;;;14.90;99.90;;;;;;5075944;28;20450;-83
2021/06/26 23:46:24;;;;;;;13.87;11.83;;;14.90;99.90;;;;;;5075383;28;20177;-83
2021/06/26 23:48:50;;;;;;;11.87;10.70;;;15.00;99.90;;;;;;5074455;28;20189;-83
2021/06/26 23:51:15;;;;;;;12.07;10.90;;;15.10;99.90;;;;;;5070583;28;20181;-83
2021/06/26 23:53:41;;;;;;;13.10;11.50;;;14.80;99.90;;;;;;5070881;28;20182;-83
2021/06/26 23:56:19;;;;;;;11.53;10.23;;;14.90;99.90;;;;;;5077826;28;20192;-83
2021/06/26 23:58:48;;;;;;;13.80;11.07;;;14.80;99.90;;;;;;5068935;28;20794;-83
